sensor_id;sensor_type;location;lat;lon;timestamp;pressure;altitude;pressure_sealevel;temperature;humidity
51313;BME280;37397;53.226;10.400;2023-05-29T00:00:37;101812.59;;;17.85;46.83
51313;BME280;37397;53.226;10.400;2023-05-29T00:03:04;101799.19;;;17.82;46.82
51313;BME280;37397;53.226;10.400;2023-05-29T00:05:31;101797.81;;;17.78;47.08
51313;BME280;37397;53.226;10.400;2023-05-29T00:07:58;101799.63;;;17.75;46.96
51313;BME280;37397;53.226;10.400;2023-05-29T00:10:25;101802.72;;;17.72;46.85
51313;BME280;37397;53.226;10.400;2023-05-29T00:12:51;101820.56;;;17.70;46.65
51313;BME280;37397;53.226;10.400;2023-05-29T00:15:18;101806.88;;;17.65;46.89
51313;BME280;37397;53.226;10.400;2023-05-29T00:17:44;101817.59;;;17.64;47.05
51313;BME280;37397;53.226;10.400;2023-05-29T00:20:11;101813.88;;;17.58;47.03
51313;BME280;37397;53.226;10.400;2023-05-29T00:22:38;101815.16;;;17.57;46.84
51313;BME280;37397;53.226;10.400;2023-05-29T00:25:06;101819.84;;;17.55;47.03
51313;BME280;37397;53.226;10.400;2023-05-29T00:27:34;101820.06;;;17.51;47.19
51313;BME280;37397;53.226;10.400;2023-05-29T00:30:02;101822.41;;;17.47;47.24
51313;BME280;37397;53.226;10.400;2023-05-29T00:32:29;101825.50;;;17.43;46.94
51313;BME280;37397;53.226;10.400;2023-05-29T00:34:56;101826.50;;;17.40;47.28
51313;BME280;37397;53.226;10.400;2023-05-29T00:37:22;101829.38;;;17.40;47.32
51313;BME280;37397;53.226;10.400;2023-05-29T00:39:49;101827.53;;;17.37;47.16
51313;BME280;37397;53.226;10.400;2023-05-29T00:42:16;101826.94;;;17.33;47.14
51313;BME280;37397;53.226;10.400;2023-05-29T00:44:42;101835.31;;;17.31;47.14
51313;BME280;37397;53.226;10.400;2023-05-29T00:47:09;101840.50;;;17.27;47.34
51313;BME280;37397;53.226;10.400;2023-05-29T00:49:37;101846.00;;;17.25;47.16
51313;BME280;37397;53.226;10.400;2023-05-29T00:52:04;101850.66;;;17.22;47.47
51313;BME280;37397;53.226;10.400;2023-05-29T00:54:35;101854.56;;;17.19;47.56
51313;BME280;37397;53.226;10.400;2023-05-29T00:57:04;101850.00;;;17.12;47.36
51313;BME280;37397;53.226;10.400;2023-05-29T00:59:32;101871.19;;;17.09;47.71
51313;BME280;37397;53.226;10.400;2023-05-29T01:02:01;101860.38;;;17.04;47.76
51313;BME280;37397;53.226;10.400;2023-05-29T01:04:29;101862.69;;;17.00;47.77
51313;BME280;37397;53.226;10.400;2023-05-29T01:06:55;101871.03;;;16.98;47.66
51313;BME280;37397;53.226;10.400;2023-05-29T01:09:23;101861.50;;;16.92;47.85
51313;BME280;37397;53.226;10.400;2023-05-29T01:15:01;101877.31;;;16.82;47.74
51313;BME280;37397;53.226;10.400;2023-05-29T01:20:26;101872.97;;;16.71;47.80
51313;BME280;37397;53.226;10.400;2023-05-29T01:23:38;101874.97;;;16.65;47.67
51313;BME280;37397;53.226;10.400;2023-05-29T01:26:45;101883.00;;;16.61;47.57
51313;BME280;37397;53.226;10.400;2023-05-29T01:29:15;101882.44;;;16.57;47.75
51313;BME280;37397;53.226;10.400;2023-05-29T01:31:43;101898.13;;;16.56;47.62
51313;BME280;37397;53.226;10.400;2023-05-29T01:34:10;101886.81;;;16.52;47.66
51313;BME280;37397;53.226;10.400;2023-05-29T01:36:37;101884.41;;;16.51;47.62
51313;BME280;37397;53.226;10.400;2023-05-29T01:39:04;101885.41;;;16.48;47.75
51313;BME280;37397;53.226;10.400;2023-05-29T01:41:32;101890.38;;;16.47;47.67
51313;BME280;37397;53.226;10.400;2023-05-29T01:44:04;101892.94;;;16.45;47.72
51313;BME280;37397;53.226;10.400;2023-05-29T01:46:31;101888.72;;;16.40;47.54
51313;BME280;37397;53.226;10.400;2023-05-29T01:48:59;101892.56;;;16.37;47.69
51313;BME280;37397;53.226;10.400;2023-05-29T01:51:26;101886.22;;;16.33;47.52
51313;BME280;37397;53.226;10.400;2023-05-29T01:53:52;101882.72;;;16.29;47.52
51313;BME280;37397;53.226;10.400;2023-05-29T01:56:19;101885.31;;;16.27;47.63
51313;BME280;37397;53.226;10.400;2023-05-29T01:58:46;101892.38;;;16.26;47.58
51313;BME280;37397;53.226;10.400;2023-05-29T02:01:14;101889.38;;;16.20;47.69
51313;BME280;37397;53.226;10.400;2023-05-29T02:03:41;101881.22;;;16.19;47.66
51313;BME280;37397;53.226;10.400;2023-05-29T02:06:07;101883.00;;;16.16;47.69
51313;BME280;37397;53.226;10.400;2023-05-29T02:08:34;101885.31;;;16.12;47.66
51313;BME280;37397;53.226;10.400;2023-05-29T02:11:00;101882.63;;;16.09;47.68
51313;BME280;37397;53.226;10.400;2023-05-29T02:13:27;101878.16;;;16.08;47.77
51313;BME280;37397;53.226;10.400;2023-05-29T02:15:53;101884.88;;;16.04;47.71
51313;BME280;37397;53.226;10.400;2023-05-29T02:18:22;101884.59;;;16.02;47.76
51313;BME280;37397;53.226;10.400;2023-05-29T02:20:48;101887.19;;;16.00;47.88
51313;BME280;37397;53.226;10.400;2023-05-29T02:23:21;101893.94;;;15.97;47.76
51313;BME280;37397;53.226;10.400;2023-05-29T02:25:50;101889.16;;;15.94;47.75
51313;BME280;37397;53.226;10.400;2023-05-29T02:28:16;101897.47;;;15.92;47.89
51313;BME280;37397;53.226;10.400;2023-05-29T02:30:43;101897.66;;;15.89;47.87
51313;BME280;37397;53.226;10.400;2023-05-29T02:33:09;101892.09;;;15.85;47.96
51313;BME280;37397;53.226;10.400;2023-05-29T02:35:36;101888.94;;;15.83;47.90
51313;BME280;37397;53.226;10.400;2023-05-29T02:38:03;101896.47;;;15.80;47.91
51313;BME280;37397;53.226;10.400;2023-05-29T02:40:29;101899.03;;;15.78;47.81
51313;BME280;37397;53.226;10.400;2023-05-29T02:42:57;101893.47;;;15.75;47.88
51313;BME280;37397;53.226;10.400;2023-05-29T02:45:23;101889.47;;;15.72;47.97
51313;BME280;37397;53.226;10.400;2023-05-29T02:47:50;101893.81;;;15.67;47.97
51313;BME280;37397;53.226;10.400;2023-05-29T02:50:17;101898.00;;;15.66;47.96
51313;BME280;37397;53.226;10.400;2023-05-29T02:52:43;101893.22;;;15.63;48.06
51313;BME280;37397;53.226;10.400;2023-05-29T02:55:10;101902.50;;;15.58;48.30
51313;BME280;37397;53.226;10.400;2023-05-29T02:57:36;101896.94;;;15.55;48.37
51313;BME280;37397;53.226;10.400;2023-05-29T03:00:03;101905.28;;;15.53;48.22
51313;BME280;37397;53.226;10.400;2023-05-29T03:02:34;101896.50;;;15.47;48.38
51313;BME280;37397;53.226;10.400;2023-05-29T03:05:02;101898.31;;;15.44;48.72
51313;BME280;37397;53.226;10.400;2023-05-29T03:07:28;101894.31;;;15.42;48.23
51313;BME280;37397;53.226;10.400;2023-05-29T03:09:55;101899.78;;;15.40;48.35
51313;BME280;37397;53.226;10.400;2023-05-29T03:12:25;101895.50;;;15.35;48.34
51313;BME280;37397;53.226;10.400;2023-05-29T03:14:54;101892.81;;;15.31;48.23
51313;BME280;37397;53.226;10.400;2023-05-29T03:17:23;101884.84;;;15.26;48.31
51313;BME280;37397;53.226;10.400;2023-05-29T03:19:49;101884.53;;;15.24;48.41
51313;BME280;37397;53.226;10.400;2023-05-29T03:22:17;101878.19;;;15.20;48.43
51313;BME280;37397;53.226;10.400;2023-05-29T03:24:44;101893.81;;;15.19;48.45
51313;BME280;37397;53.226;10.400;2023-05-29T03:27:12;101894.00;;;15.16;48.43
51313;BME280;37397;53.226;10.400;2023-05-29T03:29:40;101896.75;;;15.10;48.50
51313;BME280;37397;53.226;10.400;2023-05-29T03:32:06;101902.19;;;15.08;48.57
51313;BME280;37397;53.226;10.400;2023-05-29T03:34:33;101902.38;;;15.04;48.54
51313;BME280;37397;53.226;10.400;2023-05-29T03:37:02;101910.22;;;15.04;48.87
51313;BME280;37397;53.226;10.400;2023-05-29T03:39:31;101906.72;;;15.00;48.66
51313;BME280;37397;53.226;10.400;2023-05-29T03:41:57;101909.28;;;14.98;48.47
51313;BME280;37397;53.226;10.400;2023-05-29T03:44:24;101908.66;;;14.93;48.68
51313;BME280;37397;53.226;10.400;2023-05-29T03:46:51;101906.75;;;14.90;48.56
51313;BME280;37397;53.226;10.400;2023-05-29T03:49:17;101907.22;;;14.89;48.65
51313;BME280;37397;53.226;10.400;2023-05-29T03:51:45;101917.31;;;14.84;48.71
51313;BME280;37397;53.226;10.400;2023-05-29T03:54:11;101914.91;;;14.83;48.65
51313;BME280;37397;53.226;10.400;2023-05-29T03:56:38;101907.28;;;14.80;48.59
51313;BME280;37397;53.226;10.400;2023-05-29T03:59:05;101903.28;;;14.77;48.89
51313;BME280;37397;53.226;10.400;2023-05-29T04:01:32;101915.75;;;14.74;48.77
51313;BME280;37397;53.226;10.400;2023-05-29T04:03:58;101919.91;;;14.73;48.72
51313;BME280;37397;53.226;10.400;2023-05-29T04:06:25;101926.13;;;14.71;48.82
51313;BME280;37397;53.226;10.400;2023-05-29T04:08:52;101924.25;;;14.68;48.82
51313;BME280;37397;53.226;10.400;2023-05-29T04:11:19;101928.41;;;14.67;48.85
51313;BME280;37397;53.226;10.400;2023-05-29T04:13:47;101940.38;;;14.66;48.94
51313;BME280;37397;53.226;10.400;2023-05-29T04:16:15;101934.91;;;14.58;48.98
51313;BME280;37397;53.226;10.400;2023-05-29T04:18:41;101932.22;;;14.55;48.88
51313;BME280;37397;53.226;10.400;2023-05-29T04:21:08;101943.69;;;14.55;49.05
51313;BME280;37397;53.226;10.400;2023-05-29T04:23:35;101949.94;;;14.53;49.12
51313;BME280;37397;53.226;10.400;2023-05-29T04:26:01;101955.06;;;14.49;49.22
51313;BME280;37397;53.226;10.400;2023-05-29T04:28:29;101950.59;;;14.48;49.09
51313;BME280;37397;53.226;10.400;2023-05-29T04:30:56;101948.19;;;14.47;49.13
51313;BME280;37397;53.226;10.400;2023-05-29T04:33:23;101942.16;;;14.45;49.21
51313;BME280;37397;53.226;10.400;2023-05-29T04:35:51;101948.38;;;14.43;49.13
51313;BME280;37397;53.226;10.400;2023-05-29T04:38:18;101937.84;;;14.40;49.31
51313;BME280;37397;53.226;10.400;2023-05-29T04:40:52;101931.78;;;14.38;49.29
51313;BME280;37397;53.226;10.400;2023-05-29T04:43:24;101936.72;;;14.37;49.20
51313;BME280;37397;53.226;10.400;2023-05-29T04:45:59;101954.44;;;14.36;49.48
51313;BME280;37397;53.226;10.400;2023-05-29T04:48:27;101943.91;;;14.33;49.42
51313;BME280;37397;53.226;10.400;2023-05-29T04:50:53;101940.53;;;14.34;49.47
51313;BME280;37397;53.226;10.400;2023-05-29T04:53:21;101947.09;;;14.35;49.46
51313;BME280;37397;53.226;10.400;2023-05-29T04:55:49;101944.25;;;14.35;49.64
51313;BME280;37397;53.226;10.400;2023-05-29T04:58:16;101946.28;;;14.34;49.60
51313;BME280;37397;53.226;10.400;2023-05-29T05:00:43;101942.50;;;14.28;49.58
51313;BME280;37397;53.226;10.400;2023-05-29T05:03:10;101953.16;;;14.28;49.82
51313;BME280;37397;53.226;10.400;2023-05-29T05:05:37;101938.50;;;14.26;49.62
51313;BME280;37397;53.226;10.400;2023-05-29T05:08:04;101941.53;;;14.22;49.63
51313;BME280;37397;53.226;10.400;2023-05-29T05:10:32;101941.72;;;14.18;49.84
51313;BME280;37397;53.226;10.400;2023-05-29T05:13:00;101951.59;;;14.17;49.80
51313;BME280;37397;53.226;10.400;2023-05-29T05:15:28;101940.59;;;14.16;49.93
51313;BME280;37397;53.226;10.400;2023-05-29T05:17:55;101947.28;;;14.13;49.80
51313;BME280;37397;53.226;10.400;2023-05-29T05:20:22;101947.75;;;14.11;50.25
51313;BME280;37397;53.226;10.400;2023-05-29T05:22:54;101955.41;;;14.14;49.88
51313;BME280;37397;53.226;10.400;2023-05-29T05:25:22;101956.69;;;14.13;50.16
51313;BME280;37397;53.226;10.400;2023-05-29T05:27:48;101966.91;;;14.14;49.94
51313;BME280;37397;53.226;10.400;2023-05-29T05:30:16;101958.75;;;14.13;49.75
51313;BME280;37397;53.226;10.400;2023-05-29T05:32:42;101949.84;;;14.11;49.78
51313;BME280;37397;53.226;10.400;2023-05-29T05:35:09;101964.50;;;14.13;50.04
51313;BME280;37397;53.226;10.400;2023-05-29T05:37:37;101975.19;;;14.12;50.11
51313;BME280;37397;53.226;10.400;2023-05-29T05:40:05;101975.84;;;14.07;50.05
51313;BME280;37397;53.226;10.400;2023-05-29T05:42:35;101968.81;;;14.08;50.06
51313;BME280;37397;53.226;10.400;2023-05-29T05:45:06;101965.16;;;14.08;50.54
51313;BME280;37397;53.226;10.400;2023-05-29T05:47:33;101973.28;;;14.09;50.32
51313;BME280;37397;53.226;10.400;2023-05-29T05:50:00;101974.84;;;14.10;50.18
51313;BME280;37397;53.226;10.400;2023-05-29T05:52:27;101973.28;;;14.09;50.54
51313;BME280;37397;53.226;10.400;2023-05-29T05:54:57;101972.97;;;14.07;50.52
51313;BME280;37397;53.226;10.400;2023-05-29T05:57:24;101984.28;;;14.11;50.55
51313;BME280;37397;53.226;10.400;2023-05-29T05:59:51;101987.94;;;14.11;50.59
51313;BME280;37397;53.226;10.400;2023-05-29T06:02:18;101981.91;;;14.09;50.52
51313;BME280;37397;53.226;10.400;2023-05-29T06:04:45;101992.09;;;14.10;50.55
51313;BME280;37397;53.226;10.400;2023-05-29T06:07:12;102001.69;;;14.07;50.93
51313;BME280;37397;53.226;10.400;2023-05-29T06:09:38;101992.72;;;14.05;50.71
51313;BME280;37397;53.226;10.400;2023-05-29T06:12:06;101996.41;;;14.06;50.83
51313;BME280;37397;53.226;10.400;2023-05-29T06:14:37;101995.94;;;14.07;50.92
51313;BME280;37397;53.226;10.400;2023-05-29T06:17:04;101990.19;;;14.07;50.90
51313;BME280;37397;53.226;10.400;2023-05-29T06:19:31;101993.06;;;14.07;50.78
51313;BME280;37397;53.226;10.400;2023-05-29T06:21:59;101994.94;;;14.10;50.88
51313;BME280;37397;53.226;10.400;2023-05-29T06:24:31;101986.81;;;14.09;50.77
51313;BME280;37397;53.226;10.400;2023-05-29T06:26:58;101986.19;;;14.14;51.08
51313;BME280;37397;53.226;10.400;2023-05-29T06:29:25;101991.47;;;14.15;51.13
51313;BME280;37397;53.226;10.400;2023-05-29T06:31:52;101987.31;;;14.16;51.12
51313;BME280;37397;53.226;10.400;2023-05-29T06:34:19;101980.78;;;14.16;50.76
51313;BME280;37397;53.226;10.400;2023-05-29T06:36:46;101986.53;;;14.16;50.89
51313;BME280;37397;53.226;10.400;2023-05-29T06:39:13;101982.38;;;14.17;51.07
51313;BME280;37397;53.226;10.400;2023-05-29T06:41:41;101984.78;;;14.18;50.92
51313;BME280;37397;53.226;10.400;2023-05-29T06:44:08;101984.78;;;14.18;50.80
51313;BME280;37397;53.226;10.400;2023-05-29T06:46:34;101983.47;;;14.19;50.87
51313;BME280;37397;53.226;10.400;2023-05-29T06:49:01;101988.91;;;14.17;50.47
51313;BME280;37397;53.226;10.400;2023-05-29T06:51:33;101977.44;;;14.17;50.64
51313;BME280;37397;53.226;10.400;2023-05-29T06:54:05;101984.91;;;14.15;50.48
51313;BME280;37397;53.226;10.400;2023-05-29T06:56:32;101984.44;;;14.16;50.58
51313;BME280;37397;53.226;10.400;2023-05-29T06:58:59;101986.34;;;14.19;50.87
51313;BME280;37397;53.226;10.400;2023-05-29T07:01:29;102001.19;;;14.18;51.10
51313;BME280;37397;53.226;10.400;2023-05-29T07:04:01;101991.63;;;14.21;51.03
51313;BME280;37397;53.226;10.400;2023-05-29T07:06:29;101985.41;;;14.22;51.09
51313;BME280;37397;53.226;10.400;2023-05-29T07:08:57;101995.13;;;14.25;51.13
51313;BME280;37397;53.226;10.400;2023-05-29T07:11:24;101998.78;;;14.26;50.94
51313;BME280;37397;53.226;10.400;2023-05-29T07:13:53;101991.78;;;14.27;50.92
51313;BME280;37397;53.226;10.400;2023-05-29T07:16:21;101991.31;;;14.28;50.99
51313;BME280;37397;53.226;10.400;2023-05-29T07:18:58;101996.56;;;14.30;50.96
51313;BME280;37397;53.226;10.400;2023-05-29T07:21:27;101991.94;;;14.32;50.87
51313;BME280;37397;53.226;10.400;2023-05-29T07:23:53;101985.41;;;14.32;50.79
51313;BME280;37397;53.226;10.400;2023-05-29T07:26:20;101978.69;;;14.35;50.90
51313;BME280;37397;53.226;10.400;2023-05-29T07:28:49;101980.28;;;14.36;50.80
51313;BME280;37397;53.226;10.400;2023-05-29T07:31:16;101980.63;;;14.38;50.95
51313;BME280;37397;53.226;10.400;2023-05-29T07:33:43;101986.97;;;14.42;51.13
51313;BME280;37397;53.226;10.400;2023-05-29T07:36:15;101984.44;;;14.44;51.14
51313;BME280;37397;53.226;10.400;2023-05-29T07:38:41;101980.75;;;14.44;50.96
51313;BME280;37397;53.226;10.400;2023-05-29T07:41:09;101997.34;;;14.49;50.96
51313;BME280;37397;53.226;10.400;2023-05-29T07:43:38;101988.22;;;14.50;50.89
51313;BME280;37397;53.226;10.400;2023-05-29T07:46:07;101992.72;;;14.51;50.69
51313;BME280;37397;53.226;10.400;2023-05-29T07:48:37;101990.16;;;14.53;50.60
51313;BME280;37397;53.226;10.400;2023-05-29T07:51:04;102008.81;;;14.58;50.49
51313;BME280;37397;53.226;10.400;2023-05-29T07:53:35;102011.38;;;14.56;49.96
51313;BME280;37397;53.226;10.400;2023-05-29T07:56:02;102002.75;;;14.56;50.08
51313;BME280;37397;53.226;10.400;2023-05-29T07:58:29;102014.91;;;14.60;49.94
51313;BME280;37397;53.226;10.400;2023-05-29T08:00:56;102022.56;;;14.63;49.95
51313;BME280;37397;53.226;10.400;2023-05-29T08:03:23;102011.72;;;14.67;50.34
51313;BME280;37397;53.226;10.400;2023-05-29T08:06:15;102017.78;;;14.69;50.42
51313;BME280;37397;53.226;10.400;2023-05-29T08:08:44;102015.38;;;14.68;50.32
51313;BME280;37397;53.226;10.400;2023-05-29T08:11:11;102014.41;;;14.71;50.17
51313;BME280;37397;53.226;10.400;2023-05-29T08:13:39;102029.09;;;14.73;49.89
51313;BME280;37397;53.226;10.400;2023-05-29T08:16:06;102036.44;;;14.74;49.54
51313;BME280;37397;53.226;10.400;2023-05-29T08:18:33;102033.56;;;14.74;49.39
51313;BME280;37397;53.226;10.400;2023-05-29T08:21:00;102025.91;;;14.71;49.20
51313;BME280;37397;53.226;10.400;2023-05-29T08:23:27;102024.94;;;14.74;49.18
51313;BME280;37397;53.226;10.400;2023-05-29T08:25:53;102024.94;;;14.74;49.12
51313;BME280;37397;53.226;10.400;2023-05-29T08:28:21;102009.31;;;14.75;49.13
51313;BME280;37397;53.226;10.400;2023-05-29T08:30:47;102009.63;;;14.77;49.05
51313;BME280;37397;53.226;10.400;2023-05-29T08:33:14;102008.34;;;14.78;49.02
51313;BME280;37397;53.226;10.400;2023-05-29T08:35:41;102013.13;;;14.81;49.16
51313;BME280;37397;53.226;10.400;2023-05-29T08:38:07;102007.22;;;14.85;49.11
51313;BME280;37397;53.226;10.400;2023-05-29T08:40:34;102012.13;;;14.84;49.08
51313;BME280;37397;53.226;10.400;2023-05-29T08:43:12;102009.75;;;14.83;48.65
51313;BME280;37397;53.226;10.400;2023-05-29T08:45:43;102011.50;;;14.89;48.65
51313;BME280;37397;53.226;10.400;2023-05-29T08:48:13;102009.44;;;14.90;48.73
51313;BME280;37397;53.226;10.400;2023-05-29T08:50:43;102011.03;;;14.91;48.62
51313;BME280;37397;53.226;10.400;2023-05-29T08:53:13;102011.34;;;14.93;48.53
51313;BME280;37397;53.226;10.400;2023-05-29T08:55:40;102012.44;;;14.95;48.52
51313;BME280;37397;53.226;10.400;2023-05-29T08:58:06;102009.88;;;14.98;48.43
51313;BME280;37397;53.226;10.400;2023-05-29T09:00:34;102021.38;;;14.98;48.67
51313;BME280;37397;53.226;10.400;2023-05-29T09:03:02;102015.78;;;15.03;48.50
51313;BME280;37397;53.226;10.400;2023-05-29T09:05:29;102007.97;;;15.04;48.34
51313;BME280;37397;53.226;10.400;2023-05-29T09:07:56;102009.69;;;15.10;48.44
51313;BME280;37397;53.226;10.400;2023-05-29T09:10:23;102014.97;;;15.12;48.48
51313;BME280;37397;53.226;10.400;2023-05-29T09:12:52;102011.75;;;15.10;47.81
51313;BME280;37397;53.226;10.400;2023-05-29T09:15:20;102016.03;;;15.14;47.62
51313;BME280;37397;53.226;10.400;2023-05-29T09:17:51;102022.91;;;15.17;47.12
51313;BME280;37397;53.226;10.400;2023-05-29T09:20:20;102019.56;;;15.19;47.41
51313;BME280;37397;53.226;10.400;2023-05-29T09:23:05;102019.56;;;15.19;46.58
51313;BME280;37397;53.226;10.400;2023-05-29T09:25:34;102024.34;;;15.22;46.81
51313;BME280;37397;53.226;10.400;2023-05-29T09:28:04;102025.13;;;15.22;46.90
51313;BME280;37397;53.226;10.400;2023-05-29T09:30:54;102025.13;;;15.22;46.43
51313;BME280;37397;53.226;10.400;2023-05-29T09:33:21;102017.78;;;15.21;46.53
51313;BME280;37397;53.226;10.400;2023-05-29T09:35:49;102018.09;;;15.23;46.50
51313;BME280;37397;53.226;10.400;2023-05-29T09:38:17;102027.03;;;15.25;46.21
51313;BME280;37397;53.226;10.400;2023-05-29T09:40:47;102025.75;;;15.26;46.34
51313;BME280;37397;53.226;10.400;2023-05-29T09:43:18;102035.19;;;15.27;46.34
51313;BME280;37397;53.226;10.400;2023-05-29T09:45:47;102024.28;;;15.31;46.51
51313;BME280;37397;53.226;10.400;2023-05-29T09:48:22;102019.34;;;15.31;46.54
51313;BME280;37397;53.226;10.400;2023-05-29T09:50:50;102029.56;;;15.32;46.26
51313;BME280;37397;53.226;10.400;2023-05-29T09:53:18;102026.53;;;15.36;46.15
51313;BME280;37397;53.226;10.400;2023-05-29T09:55:52;102021.84;;;15.39;46.37
51313;BME280;37397;53.226;10.400;2023-05-29T09:58:20;102033.06;;;15.37;46.33
51313;BME280;37397;53.226;10.400;2023-05-29T10:00:47;102014.84;;;15.40;46.12
51313;BME280;37397;53.226;10.400;2023-05-29T10:03:15;102020.72;;;15.45;46.15
51313;BME280;37397;53.226;10.400;2023-05-29T10:05:47;102017.53;;;15.43;46.37
51313;BME280;37397;53.226;10.400;2023-05-29T10:08:17;102017.53;;;15.43;45.77
51313;BME280;37397;53.226;10.400;2023-05-29T10:10:56;102011.59;;;15.47;45.49
51313;BME280;37397;53.226;10.400;2023-05-29T10:13:27;102010.63;;;15.50;45.62
51313;BME280;37397;53.226;10.400;2023-05-29T10:15:58;102003.91;;;15.53;45.80
51313;BME280;37397;53.226;10.400;2023-05-29T10:18:37;102002.31;;;15.52;45.60
51313;BME280;37397;53.226;10.400;2023-05-29T10:21:04;102011.56;;;15.56;45.82
51313;BME280;37397;53.226;10.400;2023-05-29T10:23:33;101994.59;;;15.58;45.82
51313;BME280;37397;53.226;10.400;2023-05-29T10:26:12;102004.34;;;15.61;45.91
51313;BME280;37397;53.226;10.400;2023-05-29T10:28:46;102002.56;;;15.63;45.87
51313;BME280;37397;53.226;10.400;2023-05-29T10:31:26;102008.63;;;15.65;45.63
51313;BME280;37397;53.226;10.400;2023-05-29T10:37:09;102003.81;;;15.72;45.83
51313;BME280;37397;53.226;10.400;2023-05-29T10:39:42;102005.38;;;15.73;45.91
51313;BME280;37397;53.226;10.400;2023-05-29T10:45:07;101999.28;;;15.80;45.82
51313;BME280;37397;53.226;10.400;2023-05-29T10:47:34;101995.13;;;15.81;45.82
51313;BME280;37397;53.226;10.400;2023-05-29T10:50:02;101989.97;;;15.85;45.29
51313;BME280;37397;53.226;10.400;2023-05-29T10:52:34;101989.00;;;15.88;45.33
51313;BME280;37397;53.226;10.400;2023-05-29T10:55:04;102002.13;;;15.89;45.45
51313;BME280;37397;53.226;10.400;2023-05-29T10:57:33;102006.09;;;15.92;45.31
51313;BME280;37397;53.226;10.400;2023-05-29T11:00:04;101992.81;;;15.94;44.70
51313;BME280;37397;53.226;10.400;2023-05-29T11:02:39;101994.38;;;15.95;44.29
51313;BME280;37397;53.226;10.400;2023-05-29T11:07:51;101991.63;;;16.01;43.79
51313;BME280;37397;53.226;10.400;2023-05-29T11:10:42;101997.38;;;16.01;43.58
51313;BME280;37397;53.226;10.400;2023-05-29T11:13:22;101984.41;;;16.06;43.61
51313;BME280;37397;53.226;10.400;2023-05-29T11:16:20;101983.09;;;16.07;43.18
51313;BME280;37397;53.226;10.400;2023-05-29T11:19:08;101977.94;;;16.11;44.05
51313;BME280;37397;53.226;10.400;2023-05-29T11:24:24;101970.22;;;16.17;44.37
51313;BME280;37397;53.226;10.400;2023-05-29T11:26:56;101968.91;;;16.18;44.27
51313;BME280;37397;53.226;10.400;2023-05-29T11:29:27;101963.47;;;16.20;44.01
51313;BME280;37397;53.226;10.400;2023-05-29T11:32:03;101976.78;;;16.17;42.60
51313;BME280;37397;53.226;10.400;2023-05-29T11:34:32;101970.03;;;16.20;42.79
51313;BME280;37397;53.226;10.400;2023-05-29T11:37:00;101968.56;;;16.25;43.16
51313;BME280;37397;53.226;10.400;2023-05-29T11:39:27;101958.13;;;16.28;43.38
51313;BME280;37397;53.226;10.400;2023-05-29T11:41:55;101960.81;;;16.31;43.63
51313;BME280;37397;53.226;10.400;2023-05-29T11:44:25;101973.91;;;16.32;43.63
51313;BME280;37397;53.226;10.400;2023-05-29T11:47:05;101973.31;;;16.28;43.26
51313;BME280;37397;53.226;10.400;2023-05-29T11:49:35;101975.50;;;16.33;43.26
51313;BME280;37397;53.226;10.400;2023-05-29T11:52:09;101984.78;;;16.37;43.03
51313;BME280;37397;53.226;10.400;2023-05-29T11:54:42;101969.06;;;16.38;43.05
51313;BME280;37397;53.226;10.400;2023-05-29T11:57:19;101959.72;;;16.44;43.34
51313;BME280;37397;53.226;10.400;2023-05-29T11:59:47;101962.91;;;16.46;43.33
51313;BME280;37397;53.226;10.400;2023-05-29T12:02:14;101955.34;;;16.48;43.18
51313;BME280;37397;53.226;10.400;2023-05-29T12:04:40;101962.44;;;16.47;42.89
51313;BME280;37397;53.226;10.400;2023-05-29T12:07:19;101958.84;;;16.52;42.49
51313;BME280;37397;53.226;10.400;2023-05-29T12:09:46;101950.78;;;16.56;42.66
51313;BME280;37397;53.226;10.400;2023-05-29T12:12:15;101950.78;;;16.56;42.82
51313;BME280;37397;53.226;10.400;2023-05-29T12:14:41;101947.72;;;16.60;42.92
51313;BME280;37397;53.226;10.400;2023-05-29T12:17:08;101948.31;;;16.64;42.67
51313;BME280;37397;53.226;10.400;2023-05-29T12:19:35;101947.31;;;16.67;42.82
51313;BME280;37397;53.226;10.400;2023-05-29T12:22:02;101950.47;;;16.69;42.61
51313;BME280;37397;53.226;10.400;2023-05-29T12:24:29;101952.88;;;16.71;42.84
51313;BME280;37397;53.226;10.400;2023-05-29T12:27:08;101955.56;;;16.74;42.65
51313;BME280;37397;53.226;10.400;2023-05-29T12:29:35;101944.03;;;16.74;42.67
51313;BME280;37397;53.226;10.400;2023-05-29T12:32:02;101940.47;;;16.80;43.11
51313;BME280;37397;53.226;10.400;2023-05-29T12:34:34;101953.06;;;16.82;43.03
51313;BME280;37397;53.226;10.400;2023-05-29T12:37:09;101963.31;;;16.83;42.85
51313;BME280;37397;53.226;10.400;2023-05-29T12:39:40;101958.31;;;16.84;41.93
51313;BME280;37397;53.226;10.400;2023-05-29T12:42:08;101961.84;;;16.88;42.20
51313;BME280;37397;53.226;10.400;2023-05-29T12:44:37;101955.09;;;16.91;42.43
51313;BME280;37397;53.226;10.400;2023-05-29T12:47:04;101949.59;;;16.93;42.15
51313;BME280;37397;53.226;10.400;2023-05-29T12:49:35;101939.66;;;16.94;42.07
51313;BME280;37397;53.226;10.400;2023-05-29T12:52:05;101951.78;;;16.98;42.34
51313;BME280;37397;53.226;10.400;2023-05-29T12:54:34;101951.00;;;16.98;42.05
51313;BME280;37397;53.226;10.400;2023-05-29T12:57:00;101945.00;;;17.01;42.37
51313;BME280;37397;53.226;10.400;2023-05-29T12:59:27;101953.16;;;17.03;41.47
51313;BME280;37397;53.226;10.400;2023-05-29T13:01:54;101936.97;;;17.05;41.40
51313;BME280;37397;53.226;10.400;2023-05-29T13:04:20;101941.41;;;17.06;41.58
51313;BME280;37397;53.226;10.400;2023-05-29T13:06:48;101940.41;;;17.09;41.64